createdAt,value
2019-04-07T00:01:27.544Z,49.76
2019-04-07T00:04:01.765Z,50.30
2019-04-07T00:06:36.147Z,50.25
2019-04-07T00:09:10.024Z,50.22
2019-04-07T00:11:43.211Z,50.17
2019-04-07T00:14:18.522Z,50.39
2019-04-07T00:16:51.813Z,50.45
2019-04-07T00:19:25.122Z,50.32
2019-04-07T00:21:58.274Z,50.49
2019-04-07T00:24:31.469Z,50.54
2019-04-07T00:27:04.584Z,50.85
2019-04-07T00:29:37.926Z,50.71
2019-04-07T00:32:11.147Z,50.65
2019-04-07T00:34:45.721Z,51.07
2019-04-07T00:37:18.891Z,51.25
2019-04-07T00:39:52.174Z,51.52
2019-04-07T00:42:25.900Z,51.59
2019-04-07T00:44:59.724Z,51.50
2019-04-07T00:47:32.908Z,51.54
2019-04-07T00:50:07.640Z,52.09
2019-04-07T00:52:40.743Z,51.87
2019-04-07T00:55:14.213Z,51.59
2019-04-07T00:57:47.364Z,51.89
2019-04-07T01:00:22.040Z,51.90
2019-04-07T01:02:55.293Z,52.20
2019-04-07T01:05:36.654Z,52.37
2019-04-07T01:08:05.269Z,52.86
2019-04-07T01:10:38.440Z,52.89
2019-04-07T01:13:12.329Z,52.79
2019-04-07T01:15:46.019Z,52.73
2019-04-07T01:18:19.601Z,52.53
2019-04-07T01:20:53.878Z,52.94
2019-04-07T01:23:28.218Z,53.16
2019-04-07T01:26:02.183Z,53.27
2019-04-07T01:28:35.470Z,53.49
2019-04-07T01:31:08.874Z,53.22
2019-04-07T01:33:44.272Z,53.50
2019-04-07T01:36:17.523Z,53.46
2019-04-07T01:38:51.155Z,53.63
2019-04-07T01:41:51.576Z,53.71
2019-04-07T01:44:30.876Z,53.79
2019-04-07T01:47:32.081Z,54.28
2019-04-07T01:50:33.910Z,54.39
2019-04-07T01:53:22.807Z,54.60
2019-04-07T01:56:21.034Z,54.42
2019-04-07T01:59:00.578Z,54.51
2019-04-07T02:01:56.149Z,54.32
2019-04-07T02:04:38.907Z,54.71
2019-04-07T02:07:43.609Z,54.53
2019-04-07T02:10:30.625Z,54.92
2019-04-07T02:13:37.854Z,54.48
2019-04-07T02:16:42.272Z,54.81
2019-04-07T02:19:34.459Z,54.93
2019-04-07T02:22:33.324Z,55.07
2019-04-07T02:25:25.218Z,54.73
2019-04-07T02:28:20.384Z,55.21
2019-04-07T02:31:09.760Z,54.66
2019-04-07T02:34:01.774Z,54.96
2019-04-07T02:36:54.006Z,55.06
2019-04-07T02:39:58.819Z,55.54
2019-04-07T02:43:00.880Z,55.41
2019-04-07T02:45:52.390Z,55.32
2019-04-07T02:48:48.891Z,55.33
2019-04-07T02:51:33.810Z,55.57
2019-04-07T02:54:38.174Z,55.73
2019-04-07T02:57:26.850Z,55.70
2019-04-07T03:00:16.610Z,55.61
2019-04-07T03:03:01.573Z,55.45
2019-04-07T03:05:48.186Z,55.24
2019-04-07T03:08:39.628Z,55.52
2019-04-07T03:11:35.347Z,55.24
2019-04-07T03:14:43.727Z,55.26
2019-04-07T03:17:36.636Z,55.38
2019-04-07T03:20:20.057Z,55.06
2019-04-07T03:23:07.250Z,55.52
2019-04-07T03:26:05.817Z,55.77
2019-04-07T03:28:57.956Z,55.86
2019-04-07T03:32:06.346Z,55.68
2019-04-07T03:35:12.422Z,55.73
2019-04-07T03:38:04.559Z,55.72
2019-04-07T03:41:03.798Z,55.87
2019-04-07T03:43:55.778Z,56.22
2019-04-07T03:46:50.869Z,56.17
2019-04-07T03:49:29.550Z,56.20
2019-04-07T03:52:13.617Z,56.56
2019-04-07T03:55:11.367Z,56.65
2019-04-07T03:58:02.398Z,56.84
2019-04-07T04:01:33.691Z,56.74
2019-04-07T04:04:29.987Z,56.78
2019-04-07T04:07:20.628Z,57.08
2019-04-07T04:09:47.423Z,57.05
2019-04-07T04:12:31.706Z,57.24
2019-04-07T04:15:33.974Z,57.24
2019-04-07T04:18:08.116Z,57.26
2019-04-07T04:20:41.351Z,57.17
2019-04-07T04:23:14.551Z,56.95
2019-04-07T04:25:47.757Z,57.16
2019-04-07T04:28:21.865Z,57.34
2019-04-07T04:30:56.520Z,57.32
2019-04-07T04:33:31.066Z,57.13
2019-04-07T04:36:04.395Z,57.39
2019-04-07T04:38:38.522Z,57.07
2019-04-07T04:41:12.021Z,56.80
2019-04-07T04:43:45.471Z,56.28
2019-04-07T04:46:18.872Z,56.17
2019-04-07T04:48:52.496Z,56.18
2019-04-07T04:51:28.163Z,57.12
2019-04-07T04:54:03.836Z,57.66
2019-04-07T04:56:37.763Z,58.14
2019-04-07T04:59:12.839Z,58.88
2019-04-07T05:01:46.417Z,58.67
2019-04-07T05:04:20.637Z,59.24
2019-04-07T05:06:54.853Z,59.43
2019-04-07T05:09:40.216Z,59.17
2019-04-07T05:12:05.053Z,59.68
2019-04-07T05:14:38.926Z,59.89
2019-04-07T05:17:13.329Z,60.05
2019-04-07T05:19:46.825Z,59.07
2019-04-07T05:22:20.368Z,57.91
2019-04-07T05:24:53.629Z,56.60
2019-04-07T05:27:27.573Z,55.92
2019-04-07T05:30:01.193Z,55.49
2019-04-07T05:32:34.434Z,54.89
2019-04-07T05:35:08.901Z,54.34
2019-04-07T05:37:42.538Z,53.77
2019-04-07T05:40:16.766Z,53.29
2019-04-07T05:42:49.973Z,52.58
2019-04-07T05:45:23.785Z,52.41
2019-04-07T05:47:57.855Z,51.91
2019-04-07T05:50:31.819Z,51.92
2019-04-07T05:53:06.806Z,51.78
2019-04-07T05:55:39.852Z,51.37
2019-04-07T05:58:15.330Z,50.98
2019-04-07T06:00:49.402Z,50.71
2019-04-07T06:03:23.829Z,50.74
2019-04-07T06:05:57.887Z,50.91
2019-04-07T06:08:37.694Z,50.64
2019-04-07T06:11:06.232Z,50.12
2019-04-07T06:13:43.865Z,50.07
2019-04-07T06:16:15.603Z,49.29
2019-04-07T06:18:48.788Z,49.12
2019-04-07T06:21:22.225Z,48.79
2019-04-07T06:23:59.840Z,48.78
2019-04-07T06:26:34.196Z,48.12
2019-04-07T06:29:19.991Z,48.00
2019-04-07T06:31:57.735Z,47.71
2019-04-07T06:34:34.322Z,47.17
2019-04-07T06:37:10.893Z,47.18
2019-04-07T06:39:49.380Z,47.04
2019-04-07T06:42:20.880Z,46.32
2019-04-07T06:44:54.321Z,45.95
2019-04-07T06:47:32.893Z,45.04
2019-04-07T06:50:16.845Z,44.86
2019-04-07T06:53:17.563Z,44.50
2019-04-07T06:56:04.111Z,44.50
2019-04-07T06:58:59.433Z,43.90
2019-04-07T07:01:50.761Z,43.50
2019-04-07T07:04:46.584Z,43.65
2019-04-07T07:07:49.753Z,44.07
2019-04-07T07:10:54.182Z,41.66
2019-04-07T07:14:06.082Z,42.20
2019-04-07T07:17:03.972Z,42.31
2019-04-07T07:19:57.370Z,42.47
2019-04-07T07:22:55.205Z,42.21
2019-04-07T07:25:29.864Z,42.07
2019-04-07T07:28:03.344Z,41.69
2019-04-07T07:30:37.146Z,40.99
2019-04-07T07:33:11.186Z,41.83
2019-04-07T07:35:48.209Z,41.97
2019-04-07T07:38:20.354Z,41.17
2019-04-07T07:40:53.576Z,41.14
2019-04-07T07:43:29.539Z,41.23
2019-04-07T07:46:03.426Z,41.63
2019-04-07T07:48:37.732Z,41.51
2019-04-07T07:51:13.265Z,41.07
2019-04-07T07:53:46.130Z,40.26
2019-04-07T07:56:19.268Z,40.78
2019-04-07T07:58:53.014Z,41.06
2019-04-07T08:01:26.973Z,40.18
2019-04-07T08:04:00.737Z,40.39
2019-04-07T08:06:34.657Z,40.45
2019-04-07T08:09:14.911Z,40.21
2019-04-07T08:11:45.154Z,40.30
2019-04-07T08:14:18.464Z,40.79
2019-04-07T08:16:52.380Z,39.57
2019-04-07T08:19:29.376Z,39.80
2019-04-07T08:22:01.714Z,40.55
2019-04-07T08:24:36.210Z,40.32
2019-04-07T08:27:09.422Z,39.62
2019-04-07T08:29:46.219Z,39.49
2019-04-07T08:32:19.798Z,39.95
2019-04-07T08:34:54.789Z,39.95
2019-04-07T08:37:31.196Z,38.85
2019-04-07T08:40:07.268Z,37.77
2019-04-07T08:42:39.291Z,38.18
2019-04-07T08:45:16.754Z,38.49
2019-04-07T08:47:59.836Z,37.96
2019-04-07T08:50:34.385Z,37.41
2019-04-07T08:53:11.506Z,37.97
2019-04-07T08:55:54.707Z,37.32
2019-04-07T08:58:36.153Z,36.75
2019-04-07T09:01:06.399Z,37.43
2019-04-07T09:03:39.996Z,37.13
2019-04-07T09:06:13.392Z,35.73
2019-04-07T09:08:46.610Z,35.75
2019-04-07T09:11:23.268Z,35.51
2019-04-07T09:13:58.171Z,34.12
2019-04-07T09:16:52.849Z,33.74
2019-04-07T09:19:54.474Z,32.69
2019-04-07T09:23:01.730Z,32.81
2019-04-07T09:26:03.309Z,32.55
2019-04-07T09:28:55.902Z,32.76
2019-04-07T09:31:46.655Z,33.57
2019-04-07T09:34:41.469Z,32.72
2019-04-07T09:37:32.359Z,32.53
2019-04-07T09:40:30.786Z,33.24
2019-04-07T09:43:14.543Z,32.68
2019-04-07T09:46:25.038Z,33.00
2019-04-07T09:49:21.219Z,34.55
2019-04-07T09:52:14.909Z,33.97
2019-04-07T09:55:04.516Z,33.54
2019-04-07T09:57:59.514Z,33.39
2019-04-07T10:01:08.010Z,33.56
2019-04-07T10:04:00.168Z,33.30
2019-04-07T10:06:58.357Z,33.06
2019-04-07T10:10:14.323Z,32.01
2019-04-07T10:13:08.261Z,33.47
2019-04-07T10:15:59.842Z,32.90
2019-04-07T10:18:58.194Z,32.02
2019-04-07T10:22:01.617Z,32.57
2019-04-07T10:24:51.802Z,33.60
2019-04-07T10:27:56.971Z,34.40
2019-04-07T10:30:38.221Z,32.18
2019-04-07T10:33:45.976Z,32.26
2019-04-07T10:36:28.125Z,32.67
2019-04-07T10:39:16.348Z,32.44
2019-04-07T10:42:06.968Z,32.29
2019-04-07T10:45:04.818Z,32.29
2019-04-07T10:47:52.471Z,32.66
2019-04-07T10:50:53.533Z,32.38
2019-04-07T10:53:51.227Z,32.29
2019-04-07T10:56:46.496Z,32.56
2019-04-07T10:59:49.189Z,31.78
2019-04-07T11:02:45.897Z,31.34
2019-04-07T11:05:44.779Z,31.39
2019-04-07T11:08:46.624Z,31.07
2019-04-07T11:11:57.243Z,31.04
2019-04-07T11:14:55.872Z,30.97
2019-04-07T11:17:44.008Z,31.77
2019-04-07T11:20:45.631Z,31.59
2019-04-07T11:23:46.955Z,29.54
2019-04-07T11:26:51.757Z,30.25
2019-04-07T11:29:49.681Z,30.80
2019-04-07T11:32:54.340Z,31.38
2019-04-07T11:35:47.618Z,30.87
2019-04-07T11:38:49.462Z,30.82
2019-04-07T11:41:48.259Z,30.33
2019-04-07T11:44:40.242Z,30.30
2019-04-07T11:47:21.802Z,31.42
2019-04-07T11:50:04.963Z,30.08
2019-04-07T11:52:57.313Z,30.37
2019-04-07T11:55:48.577Z,29.87
2019-04-07T11:58:45.345Z,30.13
2019-04-07T12:01:41.941Z,29.95
2019-04-07T12:04:38.046Z,29.92
2019-04-07T12:07:45.825Z,29.81
2019-04-07T12:10:41.248Z,30.72
2019-04-07T12:13:32.992Z,29.75
2019-04-07T12:16:28.672Z,29.81
2019-04-07T12:19:23.843Z,29.47
2019-04-07T12:22:12.817Z,30.19
2019-04-07T12:24:59.365Z,29.34
2019-04-07T12:28:02.273Z,29.85
2019-04-07T12:31:00.512Z,29.57
2019-04-07T12:33:51.654Z,29.72
2019-04-07T12:36:41.949Z,29.51
2019-04-07T12:39:22.355Z,28.47
2019-04-07T12:42:12.339Z,28.68
2019-04-07T12:45:14.426Z,29.21
2019-04-07T12:48:04.723Z,29.21
2019-04-07T12:50:58.435Z,28.95
2019-04-07T12:53:41.277Z,29.04
2019-04-07T12:56:31.665Z,27.97
2019-04-07T12:59:14.265Z,27.44
2019-04-07T13:01:53.482Z,27.85
2019-04-07T13:04:34.316Z,28.87
2019-04-07T13:07:23.004Z,28.14
2019-04-07T13:10:14.314Z,28.61
2019-04-07T13:13:05.884Z,28.82
2019-04-07T13:16:00.283Z,29.52
2019-04-07T13:18:53.102Z,28.98
2019-04-07T13:21:38.088Z,27.03
2019-04-07T13:24:34.940Z,27.63
2019-04-07T13:27:16.997Z,29.25
2019-04-07T13:30:21.416Z,27.77
2019-04-07T13:33:26.418Z,28.46
2019-04-07T13:36:10.397Z,26.83
2019-04-07T13:38:53.049Z,27.93
2019-04-07T13:41:45.903Z,28.11
2019-04-07T13:44:24.255Z,25.62
2019-04-07T13:47:16.463Z,25.65
2019-04-07T13:50:08.664Z,23.32
2019-04-07T13:53:02.930Z,24.37
2019-04-07T13:55:59.575Z,24.32
2019-04-07T13:58:50.931Z,25.69
2019-04-07T14:01:34.693Z,24.92
2019-04-07T14:04:21.736Z,26.53
2019-04-07T14:07:16.900Z,25.46
2019-04-07T14:10:27.450Z,24.45
2019-04-07T14:13:19.747Z,24.20
2019-04-07T14:16:09.557Z,24.29
2019-04-07T14:19:00.252Z,23.97
2019-04-07T14:21:55.735Z,24.39
2019-04-07T14:24:39.517Z,22.78
2019-04-07T14:27:31.647Z,22.66
2019-04-07T14:30:22.288Z,21.70
2019-04-07T14:33:30.739Z,21.32
2019-04-07T14:36:11.639Z,19.81
2019-04-07T14:38:57.469Z,21.36
2019-04-07T14:42:01.014Z,21.50
2019-04-07T14:44:45.758Z,22.97
2019-04-07T14:47:52.325Z,24.32
2019-04-07T14:50:40.709Z,24.91
2019-04-07T14:53:33.770Z,25.32
2019-04-07T14:56:21.927Z,25.09
2019-04-07T14:59:13.210Z,24.94
2019-04-07T15:01:54.372Z,25.18
2019-04-07T15:04:35.717Z,26.55
2019-04-07T15:07:29.981Z,25.52
2019-04-07T15:10:11.845Z,26.10
2019-04-07T15:12:49.016Z,26.17
2019-04-07T15:15:23.667Z,26.62
2019-04-07T15:17:57.567Z,26.39
2019-04-07T15:20:31.159Z,26.61
2019-04-07T15:23:05.467Z,26.37
2019-04-07T15:25:43.926Z,26.09
2019-04-07T15:28:18.011Z,26.49
2019-04-07T15:30:54.423Z,26.16
2019-04-07T15:33:33.040Z,26.70
2019-04-07T15:36:08.925Z,26.60
2019-04-07T15:38:44.394Z,27.47
2019-04-07T15:41:23.876Z,26.77
2019-04-07T15:44:10.372Z,27.18
2019-04-07T15:46:53.214Z,26.99
2019-04-07T15:49:28.322Z,27.03
2019-04-07T15:52:06.736Z,26.51
2019-04-07T15:54:37.144Z,27.08
2019-04-07T15:57:11.160Z,26.80
2019-04-07T15:59:45.030Z,26.75
2019-04-07T16:02:19.271Z,26.68
2019-04-07T16:04:52.699Z,26.69
2019-04-07T16:07:26.195Z,26.92
2019-04-07T16:09:59.784Z,27.11
2019-04-07T16:12:43.510Z,26.82
2019-04-07T16:15:09.674Z,27.22
2019-04-07T16:17:43.852Z,27.20
2019-04-07T16:20:23.286Z,27.48
2019-04-07T16:22:53.296Z,27.77
2019-04-07T16:25:28.208Z,27.66
2019-04-07T16:28:02.282Z,28.09
2019-04-07T16:30:35.781Z,28.14
2019-04-07T16:33:09.898Z,27.10
2019-04-07T16:35:44.016Z,27.05
2019-04-07T16:38:18.319Z,27.34
2019-04-07T16:40:51.559Z,26.80
2019-04-07T16:43:24.813Z,26.78
2019-04-07T16:45:58.307Z,25.77
2019-04-07T16:48:36.012Z,26.32
2019-04-07T16:51:09.178Z,26.87
2019-04-07T16:53:44.407Z,27.75
2019-04-07T16:56:20.113Z,27.48
2019-04-07T16:58:53.398Z,27.36
2019-04-07T17:01:27.848Z,27.52
2019-04-07T17:04:01.273Z,28.48
2019-04-07T17:06:35.989Z,28.18
2019-04-07T17:09:23.093Z,29.57
2019-04-07T17:11:53.654Z,30.22
2019-04-07T17:14:32.145Z,30.05
2019-04-07T17:17:04.673Z,32.69
2019-04-07T17:19:38.430Z,32.01
2019-04-07T17:22:13.244Z,32.45
2019-04-07T17:24:47.719Z,32.51
2019-04-07T17:27:21.059Z,32.63
2019-04-07T17:29:55.395Z,32.44
2019-04-07T17:32:33.161Z,32.13
2019-04-07T17:35:03.890Z,32.45
2019-04-07T17:37:37.460Z,33.10
2019-04-07T17:40:17.188Z,33.96
2019-04-07T17:42:52.805Z,34.18
2019-04-07T17:45:44.080Z,34.62
2019-04-07T17:48:40.365Z,34.51
2019-04-07T17:51:19.807Z,34.32
2019-04-07T17:54:12.231Z,34.63
2019-04-07T17:57:10.011Z,34.61
2019-04-07T18:00:08.604Z,34.31
2019-04-07T18:03:04.566Z,33.54
2019-04-07T18:05:49.681Z,33.88
2019-04-07T18:08:45.957Z,34.14
2019-04-07T18:11:54.370Z,33.05
2019-04-07T18:14:45.883Z,33.15
2019-04-07T18:17:44.630Z,33.20
2019-04-07T18:20:29.385Z,32.99
2019-04-07T18:23:21.451Z,33.13
2019-04-07T18:26:15.612Z,33.56
2019-04-07T18:29:06.935Z,33.30
2019-04-07T18:31:59.002Z,33.57
2019-04-07T18:34:51.678Z,34.36
2019-04-07T18:37:44.306Z,34.44
2019-04-07T18:40:35.475Z,35.49
2019-04-07T18:43:20.522Z,36.23
2019-04-07T18:46:11.867Z,36.56
2019-04-07T18:48:59.111Z,37.18
2019-04-07T18:51:51.768Z,37.47
2019-04-07T18:54:42.578Z,37.84
2019-04-07T18:57:40.066Z,38.80
2019-04-07T19:00:35.479Z,38.92
2019-04-07T19:03:27.673Z,38.79
2019-04-07T19:06:10.511Z,37.96
2019-04-07T19:09:10.134Z,38.48
2019-04-07T19:12:04.281Z,39.94
2019-04-07T19:15:02.280Z,39.69
2019-04-07T19:17:42.034Z,40.42
2019-04-07T19:20:36.069Z,40.28
2019-04-07T19:23:32.681Z,41.00
2019-04-07T19:26:27.819Z,41.53
2019-04-07T19:29:12.820Z,42.42
2019-04-07T19:32:17.958Z,41.85
2019-04-07T19:35:09.488Z,41.31
2019-04-07T19:37:54.399Z,41.73
2019-04-07T19:40:47.107Z,41.79
2019-04-07T19:43:36.146Z,42.56
2019-04-07T19:46:34.055Z,42.89
2019-04-07T19:49:29.820Z,42.15
2019-04-07T19:52:36.900Z,41.79
2019-04-07T19:55:28.587Z,42.73
2019-04-07T19:58:23.885Z,42.77
2019-04-07T20:01:15.689Z,42.50
2019-04-07T20:04:12.846Z,43.01
2019-04-07T20:07:09.200Z,42.96
2019-04-07T20:10:01.077Z,43.04
2019-04-07T20:13:00.445Z,43.12
2019-04-07T20:15:57.708Z,44.08
2019-04-07T20:18:49.556Z,44.89
2019-04-07T20:21:39.843Z,44.69
2019-04-07T20:24:41.188Z,45.04
2019-04-07T20:27:42.799Z,45.27
2019-04-07T20:30:30.962Z,45.56
2019-04-07T20:33:16.345Z,44.95
2019-04-07T20:36:05.404Z,44.87
2019-04-07T20:38:58.446Z,45.07
2019-04-07T20:42:08.747Z,45.76
2019-04-07T20:45:06.637Z,45.74
2019-04-07T20:47:51.384Z,45.69
2019-04-07T20:50:45.741Z,46.40
2019-04-07T20:53:28.307Z,47.17
2019-04-07T20:56:35.446Z,47.17
2019-04-07T20:59:31.424Z,46.85
2019-04-07T21:02:25.149Z,46.69
2019-04-07T21:05:08.803Z,46.64
2019-04-07T21:08:04.079Z,47.60
2019-04-07T21:10:56.171Z,47.72
2019-04-07T21:13:57.389Z,47.14
2019-04-07T21:16:57.893Z,47.44
2019-04-07T21:19:45.426Z,47.54
2019-04-07T21:22:25.304Z,48.14
2019-04-07T21:25:25.195Z,49.45
2019-04-07T21:28:05.157Z,48.92
2019-04-07T21:30:46.306Z,48.71
2019-04-07T21:33:50.787Z,48.26
2019-04-07T21:36:32.216Z,47.62
2019-04-07T21:39:36.377Z,47.59
2019-04-07T21:42:48.287Z,47.42
2019-04-07T21:45:45.874Z,47.27
2019-04-07T21:48:45.435Z,47.55
2019-04-07T21:51:41.050Z,47.33
2019-04-07T21:54:23.968Z,48.27
2019-04-07T21:57:15.901Z,49.01
2019-04-07T22:00:07.906Z,50.34
2019-04-07T22:03:01.321Z,50.98
2019-04-07T22:05:51.066Z,50.93
2019-04-07T22:08:29.076Z,50.09
2019-04-07T22:11:02.196Z,50.48
2019-04-07T22:13:36.731Z,49.75
2019-04-07T22:16:10.309Z,50.30
2019-04-07T22:18:43.563Z,50.42
2019-04-07T22:21:17.040Z,49.77
2019-04-07T22:23:50.709Z,50.04
2019-04-07T22:26:23.906Z,49.99
2019-04-07T22:29:01.255Z,49.94
2019-04-07T22:31:46.125Z,49.82
2019-04-07T22:34:19.143Z,50.05
2019-04-07T22:36:52.320Z,50.26
2019-04-07T22:39:28.840Z,50.15
2019-04-07T22:42:00.836Z,49.81
2019-04-07T22:44:34.501Z,49.73
2019-04-07T22:47:07.865Z,49.77
2019-04-07T22:49:41.606Z,49.89
2019-04-07T22:52:17.440Z,50.03
2019-04-07T22:54:50.101Z,51.55
2019-04-07T22:57:23.454Z,51.62
2019-04-07T22:59:56.892Z,50.96
2019-04-07T23:02:30.310Z,51.02
2019-04-07T23:05:03.703Z,51.30
2019-04-07T23:07:37.489Z,51.58
2019-04-07T23:10:11.258Z,51.22
2019-04-07T23:12:44.759Z,52.32
2019-04-07T23:15:18.736Z,52.24
2019-04-07T23:17:51.946Z,51.67
2019-04-07T23:20:26.887Z,52.42
2019-04-07T23:23:00.483Z,51.94
2019-04-07T23:25:34.358Z,51.97
2019-04-07T23:28:08.188Z,51.78
2019-04-07T23:30:41.518Z,51.81
2019-04-07T23:33:14.711Z,51.54
2019-04-07T23:35:47.786Z,53.28
2019-04-07T23:38:21.861Z,53.31
2019-04-07T23:40:55.600Z,53.90
2019-04-07T23:43:29.172Z,54.09
2019-04-07T23:46:02.438Z,52.60
2019-04-07T23:48:35.596Z,53.17
2019-04-07T23:51:08.745Z,53.14
2019-04-07T23:54:11.226Z,53.38
2019-04-07T23:56:45.506Z,54.37
2019-04-07T23:59:18.748Z,53.34
